Willow, NY (12495)

9:53 PM EDT on March 28, 2017 (GMT -0400)
Willow, NY | | Change Station

Elev 1033 ft 42.07 °N, 74.22 °W | Updated 4 minutes ago

Light Rain
Light Rain Mist
34.6 °F
Feels Like 34.6 °F
N
0.0
Wind Variable Wind from NNW
Gusts 3.0 mph

Today
High -- | Low -- °F
--% Chance of Precip.
Yesterday
High -- | Low -- °F
Precip. -- in
Pressure 29.94 in
Visibility 6.0 miles
Clouds Scattered Clouds 1000 ft
Overcast 9000 ft
Dew Point Not available.
Humidity Not available.
Rainfall 0.23 in
Snow Depth Not available.
6:46 AM 7:18 PM
New Moon, 1% visible
SPECI KPOU 290128Z 00000KT 6SM -RA BR SCT010 OVC090 06/06 A2994 RMK AO2 P0001 T00610056
Pressure 29.94 in
Visibility 6.0 miles
Clouds Scattered Clouds 1000 ft
Overcast 9000 ft
Dew Point Not available.
Humidity Not available.
Rainfall 0.23 in
Snow Depth Not available.
6:46 AM 7:18 PM
New Moon, 1% visible
SPECI KPOU 290128Z 00000KT 6SM -RA BR SCT010 OVC090 06/06 A2994 RMK AO2 P0001 T00610056

Get Severe Weather Alerts

Thanks for signing up!

Be on the lookout for a verification email in your inbox.

You'll start receiving the daily forecast at 8 AM.

×

10-Day Weather Forecast

Almanac

Astronomy

Mar. 28, 2017 Rise Set
Actual Time
Civil Twilight
Nautical Twilight
Astronomical Twilight
Moon
Length of Visible Light
Length of Day
Tomorrow will be .
, % of the Moon is Illuminated

Today's Extremes

State Highs State Lows

Community

WunderPhotos

Upload Photos

1,962,540 photos uploaded!

WunderBlog® & News

Nearby

Air Quality

  Air Quality AQ Index Pollutant
Not available.

Snow Depth

Station Depth Elevation

Earthquake Activity

City Distance Mag. Time & Date
Minimum magnitude displayed is 2.5.

Earthquake Activity

City Distance Mag. Time & Date
Minimum magnitude displayed is 2.5.

Coastal Water Temperatures

Place Temperature

Stations

Nearby Weather Stations

Station Location Temp. Windchill Dew Point Humidity Wind Precip. Elev Updated Type
                   

Watches & Warnings

There are currently no watches in effect.